Time;durP1;ratioP1;P1;durP2;ratioP2;P2;SDS_P1;SDS_P2;PMS_P1;PMS_P2;Temp;Humidity;BMP_temperature;BMP_pressure;BME280_temperature;BME280_humidity;BME280_pressure;Samples;Min_cycle;Max_cycle;Signal;HPM_P1;HPM_P2
2022/05/28 03:01:25;;;;;;;1.15;0.57;;;24.10;43.30;;;;;;5569829;23;46412;-59
2022/05/28 03:03:50;;;;;;;1.48;0.73;;;24.10;43.30;;;;;;4878065;28;45410;-59
2022/05/28 03:06:16;;;;;;;1.30;0.80;;;24.10;43.30;;;;;;4890700;28;45226;-55
2022/05/28 03:08:42;;;;;;;1.65;0.80;;;24.10;43.30;;;;;;4902844;28;45410;-59
2022/05/28 03:11:07;;;;;;;0.63;0.60;;;24.10;43.30;;;;;;4903985;28;46147;-58
2022/05/28 03:13:33;;;;;;;2.33;0.82;;;24.10;43.20;;;;;;4900052;28;45632;-57
2022/05/28 03:15:59;;;;;;;1.33;0.70;;;24.10;43.60;;;;;;4910361;28;45604;-57
2022/05/28 03:18:24;;;;;;;1.48;1.08;;;24.10;43.30;;;;;;4898907;28;45240;-55
2022/05/28 03:20:50;;;;;;;1.48;0.80;;;24.10;43.20;;;;;;4898542;28;45446;-56
2022/05/28 03:23:15;;;;;;;1.60;0.70;;;24.10;43.30;;;;;;4900155;28;45278;-61
2022/05/28 03:25:41;;;;;;;1.38;0.80;;;24.10;43.20;;;;;;4906911;28;44866;-56
2022/05/28 03:28:07;;;;;;;1.83;0.80;;;24.10;43.20;;;;;;4878017;29;45480;-58
2022/05/28 03:30:32;;;;;;;0.43;0.43;;;24.10;43.20;;;;;;4903505;28;46188;-57
2022/05/28 03:32:58;;;;;;;2.03;0.85;;;24.10;43.30;;;;;;4900805;28;45471;-58
2022/05/28 03:35:23;;;;;;;1.77;0.82;;;24.10;43.20;;;;;;4888539;29;45259;-57
2022/05/28 03:37:49;;;;;;;1.50;0.90;;;24.10;43.20;;;;;;4898158;28;45361;-56
2022/05/28 03:40:15;;;;;;;1.23;0.73;;;24.10;43.20;;;;;;4907045;28;46176;-56
2022/05/28 03:42:40;;;;;;;1.35;0.90;;;24.10;43.20;;;;;;4899456;28;44868;-58
2022/05/28 03:45:06;;;;;;;1.02;0.60;;;24.00;43.10;;;;;;4899523;28;44640;-55
2022/05/28 03:47:32;;;;;;;1.38;0.80;;;24.00;43.20;;;;;;4905871;28;46379;-56
2022/05/28 03:49:57;;;;;;;0.98;0.70;;;24.00;43.10;;;;;;4901580;28;46229;-57
2022/05/28 03:52:23;;;;;;;1.30;0.90;;;24.00;43.20;;;;;;4899496;28;45276;-59
2022/05/28 03:54:48;;;;;;;2.45;0.77;;;24.00;43.10;;;;;;4906068;28;45315;-59
2022/05/28 03:57:28;;;;;;;1.42;0.82;;;24.00;43.20;;;;;;4897457;28;45454;-58
2022/05/28 03:59:53;;;;;;;3.78;0.82;;;24.00;43.20;;;;;;4894588;28;45942;-62
2022/05/28 04:02:20;;;;;;;0.73;0.70;;;24.00;43.20;;;;;;4899030;28;45265;-57
2022/05/28 04:04:45;;;;;;;1.73;0.80;;;24.00;43.20;;;;;;4897364;28;45251;-59
2022/05/28 04:07:11;;;;;;;1.08;0.70;;;24.00;43.10;;;;;;4897786;28;45320;-59
2022/05/28 04:09:37;;;;;;;3.00;1.25;;;24.00;43.10;;;;;;4879917;29;47090;-60
2022/05/28 04:12:02;;;;;;;1.75;0.80;;;24.00;43.10;;;;;;4897142;28;45330;-59
2022/05/28 04:14:28;;;;;;;1.10;0.65;;;24.00;43.10;;;;;;4896453;28;45458;-58
2022/05/28 04:16:54;;;;;;;1.23;0.70;;;24.00;43.00;;;;;;4899808;28;45226;-58
2022/05/28 04:19:20;;;;;;;0.90;0.80;;;24.00;43.00;;;;;;4899150;28;45924;-58
2022/05/28 04:21:46;;;;;;;0.77;0.70;;;24.00;43.10;;;;;;4910313;28;45243;-59
2022/05/28 04:24:11;;;;;;;1.58;0.82;;;24.00;43.10;;;;;;4919407;28;45195;-58
2022/05/28 04:26:37;;;;;;;1.95;0.90;;;24.00;43.00;;;;;;4913307;28;45256;-58
2022/05/28 04:29:03;;;;;;;0.93;0.70;;;23.90;43.00;;;;;;4920685;28;46034;-58
2022/05/28 04:31:28;;;;;;;1.13;0.70;;;23.90;43.00;;;;;;4915507;28;45318;-63
2022/05/28 04:33:54;;;;;;;1.08;0.77;;;23.90;43.60;;;;;;4919948;28;45535;-60
2022/05/28 04:36:20;;;;;;;1.30;0.68;;;23.90;43.10;;;;;;4918038;28;45130;-57
2022/05/28 04:38:45;;;;;;;0.80;0.70;;;23.90;43.10;;;;;;4920462;28;46470;-60
2022/05/28 04:41:11;;;;;;;1.75;0.77;;;23.90;43.00;;;;;;4918736;28;45158;-57
2022/05/28 04:43:36;;;;;;;1.92;0.80;;;23.90;43.00;;;;;;4923484;28;44939;-59
2022/05/28 04:46:02;;;;;;;2.47;0.75;;;23.90;43.10;;;;;;4915977;28;44653;-59
2022/05/28 04:48:27;;;;;;;1.38;0.73;;;23.90;43.10;;;;;;4916428;28;46020;-58
2022/05/28 04:50:53;;;;;;;1.23;0.60;;;23.90;43.10;;;;;;4917936;28;45456;-57
2022/05/28 04:53:19;;;;;;;2.70;1.02;;;23.90;43.10;;;;;;4920199;28;44786;-58
2022/05/28 04:55:47;;;;;;;1.90;0.95;;;23.90;43.10;;;;;;4896636;28;44795;-62
2022/05/28 04:58:13;;;;;;;1.20;1.00;;;23.90;43.10;;;;;;4915254;28;46034;-59
2022/05/28 05:00:38;;;;;;;1.42;0.85;;;23.90;43.00;;;;;;4916256;28;45323;-59
2022/05/28 05:03:04;;;;;;;1.70;0.55;;;23.90;43.00;;;;;;4919334;28;45301;-54
2022/05/28 05:05:30;;;;;;;1.73;0.70;;;23.80;43.00;;;;;;4920439;28;45228;-57
2022/05/28 05:07:56;;;;;;;1.30;0.80;;;23.80;43.00;;;;;;4919050;28;46258;-59
2022/05/28 05:10:22;;;;;;;1.83;0.70;;;23.90;43.00;;;;;;4923661;28;45231;-57
2022/05/28 05:12:48;;;;;;;1.73;0.90;;;23.90;42.90;;;;;;4918918;28;44947;-58
2022/05/28 05:15:14;;;;;;;1.92;0.80;;;24.00;42.70;;;;;;4918610;28;45660;-58
2022/05/28 05:17:39;;;;;;;2.38;0.90;;;24.10;42.60;;;;;;4920061;28;46331;-61
2022/05/28 05:20:06;;;;;;;2.30;0.82;;;24.10;42.40;;;;;;4922424;28;45237;-60
2022/05/28 05:22:32;;;;;;;1.40;0.82;;;24.20;42.20;;;;;;4918382;28;44711;-59
2022/05/28 05:24:58;;;;;;;2.00;0.80;;;24.30;42.00;;;;;;4911884;28;46257;-58
2022/05/28 05:27:23;;;;;;;1.42;0.90;;;24.40;41.80;;;;;;4917101;28;46130;-57
2022/05/28 05:29:49;;;;;;;3.90;0.60;;;24.80;41.10;;;;;;4898310;28;44771;-58
2022/05/28 05:32:14;;;;;;;1.92;0.80;;;25.20;40.20;;;;;;4916628;28;45580;-59
2022/05/28 05:34:42;;;;;;;1.95;0.90;;;25.30;39.80;;;;;;4918988;28;44914;-59
2022/05/28 05:37:07;;;;;;;1.10;0.60;;;25.50;39.50;;;;;;4913829;28;47052;-60
2022/05/28 05:39:33;;;;;;;1.42;0.77;;;25.70;39.00;;;;;;4920225;28;45405;-58
2022/05/28 05:41:59;;;;;;;1.55;0.80;;;25.70;39.00;;;;;;4900050;28;45527;-59
2022/05/28 05:44:24;;;;;;;0.85;0.55;;;25.40;39.50;;;;;;4919972;28;45306;-60
2022/05/28 05:46:50;;;;;;;1.50;0.55;;;25.10;40.10;;;;;;4916475;28;46109;-59
2022/05/28 05:49:15;;;;;;;2.17;0.70;;;24.90;40.60;;;;;;4916067;28;45458;-57
2022/05/28 05:51:46;;;;;;;1.77;0.90;;;24.80;40.90;;;;;;4915596;28;45510;-58
2022/05/28 05:54:12;;;;;;;1.38;0.85;;;24.60;41.10;;;;;;4889550;28;45387;-57
2022/05/28 05:56:37;;;;;;;1.92;0.70;;;24.50;41.20;;;;;;4906486;28;46140;-59
2022/05/28 05:59:03;;;;;;;1.73;0.80;;;24.40;41.40;;;;;;4913946;28;45363;-59
2022/05/28 06:01:29;;;;;;;1.65;0.65;;;24.40;41.50;;;;;;4907902;28;45601;-60
2022/05/28 06:03:54;;;;;;;1.63;0.82;;;24.40;41.60;;;;;;4909330;28;44821;-60
2022/05/28 06:06:20;;;;;;;1.85;0.70;;;24.40;41.60;;;;;;4908758;28;46153;-60
2022/05/28 06:08:46;;;;;;;1.80;0.77;;;24.40;41.70;;;;;;4911134;28;45317;-59
2022/05/28 06:11:12;;;;;;;3.05;0.85;;;24.40;41.70;;;;;;4909433;28;45555;-60
2022/05/28 06:13:38;;;;;;;1.00;0.57;;;24.30;41.70;;;;;;4911701;28;45769;-59
2022/05/28 06:16:03;;;;;;;1.45;0.70;;;24.30;41.70;;;;;;4910367;28;46132;-60
2022/05/28 06:18:30;;;;;;;1.35;0.60;;;24.30;41.80;;;;;;4891990;28;45654;-59
2022/05/28 06:20:55;;;;;;;2.03;0.73;;;24.30;41.80;;;;;;4909224;28;45195;-58
2022/05/28 06:23:21;;;;;;;3.60;0.70;;;24.30;41.80;;;;;;4910599;28;44730;-60
2022/05/28 06:25:47;;;;;;;1.73;0.90;;;24.30;41.80;;;;;;4911350;28;46048;-59
2022/05/28 06:28:12;;;;;;;3.10;0.82;;;24.30;41.80;;;;;;4910341;28;45101;-59
2022/05/28 06:30:40;;;;;;;1.42;0.65;;;24.30;41.80;;;;;;4916960;28;45784;-57
2022/05/28 06:33:06;;;;;;;1.10;0.57;;;24.30;41.70;;;;;;4914331;28;45314;-56
2022/05/28 06:35:32;;;;;;;1.10;0.60;;;24.30;41.70;;;;;;4903272;28;46166;-59
2022/05/28 06:37:58;;;;;;;1.13;0.57;;;24.40;41.70;;;;;;4894794;28;45419;-55
2022/05/28 06:40:24;;;;;;;1.42;0.70;;;24.40;41.60;;;;;;4914270;28;45416;-59
2022/05/28 06:42:51;;;;;;;1.60;0.60;;;24.40;41.40;;;;;;4913043;28;45016;-59
2022/05/28 06:45:17;;;;;;;1.17;0.60;;;24.50;41.40;;;;;;4915702;28;46523;-58
2022/05/28 06:47:43;;;;;;;1.45;0.85;;;24.60;41.30;;;;;;4914282;28;44969;-60
2022/05/28 06:52:54;;;;;;;1.45;0.60;;;24.60;41.10;;;;;;4916431;28;46057;-59
2022/05/28 06:55:19;;;;;;;1.95;0.60;;;24.70;41.10;;;;;;4914803;28;45667;-59
2022/05/28 06:57:45;;;;;;;2.17;0.70;;;24.70;41.10;;;;;;4916529;28;44937;-59
2022/05/28 07:00:11;;;;;;;1.17;0.57;;;24.60;41.10;;;;;;4918838;28;45633;-58
2022/05/28 07:02:37;;;;;;;1.70;0.60;;;24.60;41.20;;;;;;4912532;28;45224;-60
2022/05/28 07:05:02;;;;;;;1.90;0.57;;;24.60;41.20;;;;;;4895998;28;46139;-58
2022/05/28 07:07:28;;;;;;;1.48;0.77;;;24.60;41.20;;;;;;4920746;28;45062;-58
2022/05/28 07:09:54;;;;;;;1.17;0.60;;;24.50;41.20;;;;;;4918956;28;45249;-58
2022/05/28 07:12:19;;;;;;;3.47;0.70;;;24.60;41.30;;;;;;4915125;28;46281;-60
2022/05/28 07:14:45;;;;;;;1.38;0.60;;;24.50;41.30;;;;;;4914471;28;46362;-59
2022/05/28 07:17:10;;;;;;;2.05;0.68;;;24.50;41.20;;;;;;4920438;28;45037;-58
2022/05/28 07:19:36;;;;;;;1.10;0.63;;;24.50;41.20;;;;;;4913941;28;46491;-60
2022/05/28 07:22:02;;;;;;;0.95;0.55;;;24.50;41.20;;;;;;4919727;28;45188;-58
2022/05/28 07:24:27;;;;;;;0.93;0.50;;;24.50;41.20;;;;;;4916330;28;46219;-58
2022/05/28 07:26:53;;;;;;;1.90;0.68;;;24.50;41.20;;;;;;4918939;28;45883;-58
2022/05/28 07:29:18;;;;;;;1.40;0.63;;;24.50;41.20;;;;;;4917917;28;45409;-59
2022/05/28 07:31:45;;;;;;;2.00;0.80;;;24.60;41.20;;;;;;4909609;28;45281;-60
2022/05/28 07:34:11;;;;;;;1.52;0.60;;;24.60;41.10;;;;;;4919683;28;45428;-58
2022/05/28 07:36:37;;;;;;;1.23;0.70;;;24.60;41.20;;;;;;4908456;28;45346;-55
2022/05/28 07:39:02;;;;;;;1.17;0.60;;;24.60;41.10;;;;;;4914179;28;45380;-60
2022/05/28 07:41:28;;;;;;;1.85;0.70;;;24.60;41.20;;;;;;4906444;28;45283;-59
2022/05/28 07:43:54;;;;;;;2.20;0.70;;;24.60;41.10;;;;;;4918444;28;46029;-60
2022/05/28 07:46:25;;;;;;;2.53;0.98;;;24.60;41.10;;;;;;4915021;28;45403;-58
2022/05/28 07:48:50;;;;;;;2.88;0.77;;;24.60;41.10;;;;;;4916163;28;45495;-60
2022/05/28 07:51:16;;;;;;;1.85;0.63;;;24.60;41.10;;;;;;4912443;28;45558;-57
2022/05/28 07:53:42;;;;;;;1.05;0.50;;;24.60;41.00;;;;;;4901154;28;46498;-57
2022/05/28 07:56:08;;;;;;;2.42;0.70;;;24.60;40.90;;;;;;4900831;28;45505;-57
2022/05/28 07:58:34;;;;;;;2.60;1.00;;;24.60;41.00;;;;;;4903429;28;45368;-58
2022/05/28 08:00:59;;;;;;;2.17;0.80;;;24.60;41.00;;;;;;4905943;28;45694;-59
2022/05/28 08:03:25;;;;;;;3.42;0.70;;;24.60;40.90;;;;;;4900971;28;45954;-58
2022/05/28 08:05:52;;;;;;;2.25;0.52;;;24.60;40.90;;;;;;4916038;28;45199;-59
2022/05/28 08:08:18;;;;;;;3.03;0.80;;;24.60;40.80;;;;;;4920093;28;44964;-59
2022/05/28 08:10:44;;;;;;;1.42;0.63;;;24.60;40.90;;;;;;4920281;28;45299;-59
2022/05/28 08:13:14;;;;;;;1.70;0.60;;;24.60;40.90;;;;;;4921243;28;47422;-57
2022/05/28 08:15:41;;;;;;;1.30;0.80;;;24.60;40.70;;;;;;4913912;28;45334;-61
2022/05/28 08:18:07;;;;;;;1.58;0.68;;;24.70;40.70;;;;;;4918531;28;45388;-59
2022/05/28 08:23:18;;;;;;;1.95;0.73;;;24.60;40.80;;;;;;4916038;28;45989;-57
2022/05/28 08:25:44;;;;;;;1.92;0.85;;;24.60;40.80;;;;;;4918789;28;45556;-59
2022/05/28 08:28:10;;;;;;;2.00;0.75;;;24.60;40.70;;;;;;4897621;28;44785;-59
2022/05/28 08:30:38;;;;;;;1.52;0.50;;;24.60;40.80;;;;;;4915573;28;45273;-56
2022/05/28 08:33:03;;;;;;;1.27;0.50;;;24.60;40.80;;;;;;4914436;28;46144;-60
2022/05/28 08:35:29;;;;;;;1.63;0.68;;;24.60;40.70;;;;;;4919969;28;45345;-57
2022/05/28 08:37:55;;;;;;;3.65;0.60;;;24.60;40.70;;;;;;4915894;28;44963;-59
2022/05/28 08:40:20;;;;;;;1.73;0.55;;;24.70;40.70;;;;;;4925812;28;45718;-60
2022/05/28 08:42:46;;;;;;;1.73;0.70;;;24.70;40.80;;;;;;4916318;28;46367;-57
2022/05/28 08:45:13;;;;;;;0.75;0.50;;;24.70;40.60;;;;;;4920173;28;45031;-58
2022/05/28 08:47:40;;;;;;;1.88;0.70;;;24.70;40.60;;;;;;4899122;28;45438;-59
2022/05/28 08:50:07;;;;;;;2.83;0.80;;;24.60;40.50;;;;;;4905784;28;45209;-59
2022/05/28 08:52:54;;;;;;;2.90;0.63;;;24.60;40.60;;;;;;4921770;28;46064;-56
2022/05/28 08:55:22;;;;;;;1.17;0.50;;;24.60;40.40;;;;;;4915399;28;45208;-58
2022/05/28 08:58:03;;;;;;;2.15;0.63;;;24.60;40.50;;;;;;4887247;28;45760;-58
2022/05/28 09:00:44;;;;;;;1.23;0.70;;;24.60;40.50;;;;;;4877492;28;45422;-57
2022/05/28 09:03:19;;;;;;;1.05;0.63;;;24.60;40.50;;;;;;4903185;28;45265;-59
2022/05/28 09:06:05;;;;;;;2.13;0.80;;;24.60;40.50;;;;;;4918522;28;45520;-59
2022/05/28 09:08:35;;;;;;;2.92;0.60;;;24.60;40.40;;;;;;4899580;28;45427;-59
2022/05/28 09:11:04;;;;;;;1.63;0.70;;;24.60;40.50;;;;;;4900242;28;45467;-57
2022/05/28 09:13:51;;;;;;;4.22;1.17;;;24.60;40.60;;;;;;4900464;28;45187;-60
2022/05/28 09:16:26;;;;;;;1.77;0.73;;;24.60;40.40;;;;;;4914463;28;45075;-59
2022/05/28 09:18:53;;;;;;;1.42;0.68;;;24.60;40.40;;;;;;4898570;28;45596;-60
2022/05/28 09:21:18;;;;;;;1.70;0.60;;;24.60;40.60;;;;;;4898855;28;45187;-57
2022/05/28 09:23:47;;;;;;;2.05;0.60;;;24.60;40.50;;;;;;4916622;28;46197;-59
2022/05/28 09:26:14;;;;;;;1.27;0.70;;;24.60;40.50;;;;;;4921114;28;45237;-58
2022/05/28 09:29:04;;;;;;;2.40;0.63;;;24.60;40.50;;;;;;4896460;28;45155;-61
2022/05/28 09:32:20;;;;;;;1.70;0.70;;;24.60;40.30;;;;;;4918281;28;45339;-58
2022/05/28 09:35:02;;;;;;;1.55;0.80;;;24.60;40.10;;;;;;4890347;28;45585;-59
2022/05/28 09:37:30;;;;;;;1.05;0.50;;;24.60;40.50;;;;;;4895934;28;45275;-60
2022/05/28 09:40:11;;;;;;;1.23;0.50;;;24.60;40.40;;;;;;4919889;28;44709;-60
2022/05/28 09:43:02;;;;;;;2.30;0.50;;;24.60;40.30;;;;;;4892989;28;45301;-58
2022/05/28 09:45:57;;;;;;;1.90;0.60;;;24.60;40.20;;;;;;4922889;28;45790;-57
2022/05/28 09:48:25;;;;;;;2.22;0.60;;;24.60;39.90;;;;;;4912327;28;45539;-61
2022/05/28 09:50:50;;;;;;;2.67;0.70;;;24.60;40.20;;;;;;4915970;28;45028;-58
2022/05/28 09:56:26;;;;;;;0.88;0.50;;;24.60;40.20;;;;;;4898252;28;47252;-60
2022/05/28 09:58:52;;;;;;;1.27;0.55;;;24.60;40.20;;;;;;4888244;28;45312;-57
2022/05/28 10:01:22;;;;;;;1.77;0.60;;;24.60;40.30;;;;;;4885511;28;45802;-58
2022/05/28 10:04:31;;;;;;;1.10;0.50;;;24.60;40.30;;;;;;4921263;28;45242;-60
2022/05/28 10:06:47;;;;;;;2.08;0.80;;;24.60;40.40;;;;;;4909911;28;45866;-57
2022/05/28 10:09:17;;;;;;;1.90;0.68;;;24.60;40.20;;;;;;4903538;28;45376;-57
2022/05/28 10:11:53;;;;;;;1.98;0.50;;;24.60;40.40;;;;;;4922206;28;45254;-57
2022/05/28 10:14:20;;;;;;;2.13;0.60;;;24.60;40.30;;;;;;4921679;28;45519;-59
2022/05/28 10:16:47;;;;;;;1.63;0.50;;;24.60;40.40;;;;;;4907691;28;46342;-61
2022/05/28 10:19:25;;;;;;;1.42;0.68;;;24.60;40.40;;;;;;4915259;28;45441;-59
2022/05/28 10:21:52;;;;;;;0.40;0.40;;;24.60;40.30;;;;;;4914662;28;44893;-60
2022/05/28 10:24:19;;;;;;;0.68;0.40;;;24.60;40.40;;;;;;4911513;28;45490;-60
2022/05/28 10:26:46;;;;;;;1.02;0.65;;;24.60;40.40;;;;;;4894973;28;45343;-60
2022/05/28 10:29:27;;;;;;;1.60;0.50;;;24.60;40.30;;;;;;4888560;28;45435;-60
2022/05/28 10:31:52;;;;;;;2.45;0.60;;;24.60;40.20;;;;;;4916886;28;45530;-58
2022/05/28 10:34:34;;;;;;;1.05;0.57;;;24.60;40.30;;;;;;4910243;28;45236;-58
2022/05/28 10:37:12;;;;;;;1.10;0.52;;;24.60;40.20;;;;;;4914823;28;45104;-59
2022/05/28 10:39:37;;;;;;;1.45;0.50;;;24.60;40.40;;;;;;4896568;28;45508;-57
2022/05/28 10:42:03;;;;;;;0.85;0.52;;;24.60;40.40;;;;;;4917082;28;45471;-55
2022/05/28 10:44:29;;;;;;;1.30;0.40;;;24.60;40.40;;;;;;4909125;28;45291;-59
2022/05/28 10:47:26;;;;;;;2.13;0.63;;;24.60;40.30;;;;;;4915186;28;46183;-55
2022/05/28 10:50:20;;;;;;;0.80;0.50;;;24.60;40.30;;;;;;4909148;28;45775;-60
2022/05/28 10:53:13;;;;;;;1.60;0.60;;;24.60;40.10;;;;;;4902321;28;44927;-58
2022/05/28 10:56:18;;;;;;;2.38;0.68;;;24.60;40.10;;;;;;4897420;28;45323;-61
2022/05/28 10:58:54;;;;;;;1.63;0.68;;;24.60;40.20;;;;;;4831396;29;45363;-58
2022/05/28 11:01:19;;;;;;;2.00;0.43;;;24.60;40.10;;;;;;4833254;29;45430;-57
2022/05/28 11:04:07;;;;;;;1.05;0.40;;;24.70;40.10;;;;;;4874714;28;45219;-57
2022/05/28 11:06:45;;;;;;;1.73;0.60;;;24.70;39.70;;;;;;4902990;28;44687;-59
2022/05/28 11:09:12;;;;;;;1.55;0.60;;;24.70;40.00;;;;;;4883761;28;46102;-57
2022/05/28 11:11:51;;;;;;;1.60;0.63;;;24.70;39.70;;;;;;4917298;28;46353;-58
2022/05/28 11:14:30;;;;;;;3.13;0.65;;;24.70;39.80;;;;;;4904338;28;46307;-57
2022/05/28 11:17:07;;;;;;;0.85;0.50;;;24.70;39.80;;;;;;4915212;28;44765;-60
2022/05/28 11:19:54;;;;;;;1.00;0.57;;;24.70;39.60;;;;;;4922027;28;45332;-60
2022/05/28 11:22:51;;;;;;;3.20;0.50;;;24.70;39.30;;;;;;4922206;28;45329;-57
2022/05/28 11:25:23;;;;;;;2.65;0.50;;;24.70;39.70;;;;;;4906213;28;44696;-58
2022/05/28 11:28:10;;;;;;;1.98;0.75;;;24.70;39.70;;;;;;4904693;28;45223;-56
2022/05/28 11:30:43;;;;;;;1.95;0.60;;;24.70;39.80;;;;;;4921908;28;46201;-57
2022/05/28 11:33:09;;;;;;;;;;;24.70;39.80;;;;;;4887273;28;45661;-54
2022/05/28 11:35:37;;;;;;;0.63;0.40;;;24.70;39.60;;;;;;4919482;28;44702;-58
2022/05/28 11:38:16;;;;;;;1.48;0.45;;;24.70;39.70;;;;;;4909406;28;45738;-57
2022/05/28 11:40:49;;;;;;;1.05;0.55;;;24.80;39.30;;;;;;4906151;28;46660;-62
2022/05/28 11:43:33;;;;;;;1.55;0.60;;;24.70;39.40;;;;;;4900635;28;45544;-59
2022/05/28 11:46:01;;;;;;;1.35;0.57;;;24.80;39.40;;;;;;4904500;28;45309;-58
2022/05/28 11:51:33;;;;;;;1.65;0.68;;;24.80;38.90;;;;;;4889095;28;46171;-58
2022/05/28 11:54:18;;;;;;;1.38;0.70;;;24.80;39.50;;;;;;4888946;28;44967;-58
2022/05/28 11:56:45;;;;;;;1.17;0.55;;;24.80;39.50;;;;;;4919324;28;44724;-59
2022/05/28 11:59:22;;;;;;;1.80;0.60;;;24.80;39.50;;;;;;4903876;28;45344;-57
2022/05/28 12:02:00;;;;;;;0.60;0.40;;;24.80;39.50;;;;;;4894842;28;46360;-58
2022/05/28 12:04:26;;;;;;;1.02;0.60;;;24.80;39.40;;;;;;4901156;28;45419;-56
2022/05/28 12:07:25;;;;;;;1.50;0.50;;;24.80;39.50;;;;;;4890083;28;45192;-59
2022/05/28 12:09:51;;;;;;;0.80;0.52;;;24.80;39.40;;;;;;4904315;28;44788;-56
2022/05/28 12:12:34;;;;;;;0.75;0.35;;;24.90;39.50;;;;;;4898891;28;46039;-56
2022/05/28 12:15:05;;;;;;;2.67;0.68;;;24.90;39.30;;;;;;4905135;28;45246;-57
2022/05/28 12:17:31;;;;;;;1.75;0.60;;;24.90;39.10;;;;;;4922797;28;45417;-57
2022/05/28 12:20:05;;;;;;;0.57;0.50;;;24.90;39.40;;;;;;4902744;28;44663;-58
2022/05/28 12:22:39;;;;;;;2.67;0.60;;;24.90;39.30;;;;;;4901847;28;46230;-57
2022/05/28 12:25:16;;;;;;;1.40;0.55;;;24.90;39.20;;;;;;4925460;28;45135;-57
2022/05/28 12:27:56;;;;;;;1.00;0.55;;;24.90;39.00;;;;;;4915810;28;45230;-57
2022/05/28 12:30:45;;;;;;;1.00;0.50;;;24.90;39.00;;;;;;4919649;28;45242;-54
2022/05/28 12:33:28;;;;;;;1.10;0.65;;;24.90;38.90;;;;;;4903492;28;46256;-59
2022/05/28 12:36:05;;;;;;;1.70;0.73;;;24.90;39.10;;;;;;4921020;28;45218;-59
2022/05/28 12:38:49;;;;;;;1.15;0.55;;;24.90;39.20;;;;;;4903432;28;44809;-55
2022/05/28 12:41:23;;;;;;;0.43;0.35;;;24.90;39.10;;;;;;4910376;28;44878;-56
2022/05/28 12:44:01;;;;;;;1.45;0.65;;;24.90;39.00;;;;;;4903943;28;45162;-56
2022/05/28 12:46:50;;;;;;;1.55;0.68;;;24.90;39.10;;;;;;4896122;28;45405;-58
2022/05/28 12:49:33;;;;;;;1.50;0.57;;;24.90;38.80;;;;;;4920215;28;45493;-58
2022/05/28 12:52:20;;;;;;;0.93;0.40;;;24.90;38.80;;;;;;4923156;28;44736;-58
2022/05/28 12:54:48;;;;;;;1.23;0.50;;;24.90;38.80;;;;;;4919985;28;45274;-59
2022/05/28 12:57:14;;;;;;;1.35;0.60;;;24.90;39.10;;;;;;4901142;28;45273;-59
2022/05/28 12:59:44;;;;;;;0.95;0.43;;;24.90;39.10;;;;;;4921043;28;44709;-58
2022/05/28 13:02:22;;;;;;;0.90;0.60;;;24.90;39.00;;;;;;4903995;28;45480;-59
2022/05/28 13:04:56;;;;;;;0.90;0.60;;;24.90;38.90;;;;;;4890660;28;46153;-58
2022/05/28 13:07:36;;;;;;;0.63;0.40;;;24.90;39.10;;;;;;4922566;28;45139;-59
2022/05/28 13:10:22;;;;;;;1.10;0.52;;;24.90;39.10;;;;;;4907997;28;44794;-57
2022/05/28 13:13:07;;;;;;;1.58;0.55;;;24.80;39.00;;;;;;4918646;28;45935;-62
2022/05/28 13:16:10;;;;;;;1.08;0.55;;;24.90;39.20;;;;;;4911169;28;46766;-59
2022/05/28 13:18:38;;;;;;;1.17;0.60;;;24.90;38.80;;;;;;4919298;28;46606;-59
2022/05/28 13:21:13;;;;;;;1.10;0.50;;;24.90;39.00;;;;;;4914549;28;47833;-55
2022/05/28 13:23:45;;;;;;;1.98;0.80;;;24.90;39.00;;;;;;4902801;28;46343;-59
2022/05/28 13:26:19;;;;;;;1.20;0.52;;;24.90;39.00;;;;;;4914168;28;46285;-57
2022/05/28 13:29:19;;;;;;;1.15;0.50;;;24.90;38.80;;;;;;4918110;28;45198;-57
2022/05/28 13:32:07;;;;;;;1.30;0.55;;;24.90;39.30;;;;;;4923723;28;45243;-57
2022/05/28 13:34:33;;;;;;;0.55;0.45;;;24.90;38.60;;;;;;4900849;28;45170;-59
2022/05/28 13:36:58;;;;;;;1.83;0.60;;;24.90;38.90;;;;;;4913265;28;45906;-59
2022/05/28 13:39:25;;;;;;;0.88;0.45;;;24.90;38.90;;;;;;4905188;28;45443;-58
2022/05/28 13:41:51;;;;;;;1.13;0.60;;;25.00;38.90;;;;;;4919114;28;45237;-60
2022/05/28 13:44:30;;;;;;;1.40;0.60;;;25.00;38.90;;;;;;4923310;28;45514;-56
2022/05/28 13:46:57;;;;;;;1.40;0.73;;;25.00;38.90;;;;;;4899184;28;46030;-55
2022/05/28 13:49:24;;;;;;;1.38;0.60;;;25.00;38.90;;;;;;4904753;28;45470;-56
2022/05/28 13:51:51;;;;;;;1.92;0.80;;;25.00;39.00;;;;;;4922021;28;45235;-55
2022/05/28 13:54:17;;;;;;;0.77;0.50;;;24.90;38.90;;;;;;4900668;28;45132;-58
2022/05/28 13:56:57;;;;;;;1.50;0.60;;;24.90;39.00;;;;;;4883669;28;47161;-58
2022/05/28 13:59:33;;;;;;;2.67;0.90;;;24.90;38.80;;;;;;4922189;28;44650;-58
2022/05/28 14:01:59;;;;;;;1.17;0.60;;;25.00;38.70;;;;;;4917391;28;45435;-55
2022/05/28 14:04:26;;;;;;;1.48;0.70;;;25.00;39.00;;;;;;4914873;28;46216;-58
2022/05/28 14:07:00;;;;;;;1.90;0.70;;;25.00;38.90;;;;;;4901896;28;46953;-57
2022/05/28 14:09:30;;;;;;;1.15;0.75;;;25.00;38.80;;;;;;4920850;28;45214;-58
2022/05/28 14:11:56;;;;;;;1.20;0.77;;;25.00;38.90;;;;;;4917699;28;45420;-58
2022/05/28 14:14:26;;;;;;;2.47;0.60;;;25.00;39.00;;;;;;4890839;28;45258;-58
2022/05/28 14:16:56;;;;;;;1.50;0.70;;;25.00;38.90;;;;;;4887099;28;46155;-59
2022/05/28 14:19:24;;;;;;;1.30;0.73;;;25.00;38.90;;;;;;4919430;28;45225;-59
2022/05/28 14:22:01;;;;;;;1.73;0.75;;;25.00;39.00;;;;;;4902434;28;45272;-57
2022/05/28 14:24:29;;;;;;;1.58;0.70;;;25.00;38.80;;;;;;4901342;28;45977;-59
2022/05/28 14:27:05;;;;;;;1.17;0.80;;;25.00;38.90;;;;;;4895224;28;46337;-59
2022/05/28 14:29:40;;;;;;;1.98;0.95;;;25.00;38.70;;;;;;4895238;28;45660;-60
2022/05/28 14:32:08;;;;;;;1.55;0.68;;;25.00;38.90;;;;;;4900221;28;45315;-61
2022/05/28 14:34:33;;;;;;;0.80;0.75;;;25.00;38.70;;;;;;4897330;28;45640;-62
2022/05/28 14:36:59;;;;;;;1.60;0.98;;;25.00;38.80;;;;;;4894387;28;45238;-63
2022/05/28 14:39:26;;;;;;;0.95;0.63;;;25.00;38.80;;;;;;4915011;28;45639;-59
2022/05/28 14:42:08;;;;;;;1.45;0.95;;;25.00;38.90;;;;;;4898021;28;45404;-59
2022/05/28 14:44:36;;;;;;;1.05;0.60;;;25.00;38.70;;;;;;4894820;28;45591;-59
2022/05/28 14:47:03;;;;;;;0.82;0.52;;;25.00;38.80;;;;;;4895179;28;45339;-61
2022/05/28 14:49:33;;;;;;;1.67;0.82;;;25.00;38.80;;;;;;4914449;28;45281;-59
2022/05/28 14:52:00;;;;;;;0.68;0.68;;;25.00;38.80;;;;;;4886417;28;45556;-61
2022/05/28 14:54:32;;;;;;;3.55;0.90;;;25.00;38.90;;;;;;4901152;28;45618;-59
2022/05/28 14:56:58;;;;;;;1.40;0.77;;;25.00;38.90;;;;;;4918091;28;45924;-57
2022/05/28 14:59:44;;;;;;;2.05;1.00;;;24.90;38.90;;;;;;4905403;28;45532;-56
2022/05/28 15:02:31;;;;;;;1.60;0.90;;;25.00;38.80;;;;;;4916276;28;45567;-54
2022/05/28 15:05:04;;;;;;;1.30;0.90;;;25.00;38.70;;;;;;4901769;28;45552;-59
2022/05/28 15:07:30;;;;;;;1.50;0.95;;;25.00;38.90;;;;;;4916031;28;45696;-59
2022/05/28 15:09:57;;;;;;;1.38;0.85;;;24.90;38.90;;;;;;4917999;28;45352;-58
2022/05/28 15:12:31;;;;;;;0.93;0.75;;;25.00;39.00;;;;;;4895960;28;45207;-59
2022/05/28 15:14:58;;;;;;;1.17;0.93;;;25.00;38.90;;;;;;4915338;28;45569;-59
2022/05/28 15:17:24;;;;;;;1.65;0.93;;;25.00;39.00;;;;;;4912448;28;46063;-58
2022/05/28 15:19:51;;;;;;;2.15;1.10;;;25.00;38.90;;;;;;4914203;28;45334;-60
2022/05/28 15:22:19;;;;;;;2.13;1.20;;;25.00;38.90;;;;;;4918470;28;45525;-60
2022/05/28 15:24:45;;;;;;;1.73;1.00;;;24.90;38.90;;;;;;4900764;28;45584;-61
2022/05/28 15:27:11;;;;;;;1.73;0.98;;;24.90;38.90;;;;;;4917139;28;46846;-62
2022/05/28 15:29:37;;;;;;;1.48;0.90;;;25.00;38.90;;;;;;4905455;28;45444;-59
2022/05/28 15:32:05;;;;;;;1.48;0.95;;;24.90;39.00;;;;;;4917080;28;45393;-58
2022/05/28 15:34:30;;;;;;;1.33;0.90;;;25.00;39.00;;;;;;4919792;28;45356;-62
2022/05/28 15:39:40;;;;;;;2.70;1.23;;;25.00;39.00;;;;;;4918245;28;45297;-60
2022/05/28 15:42:06;;;;;;;1.90;1.10;;;25.00;39.10;;;;;;4918275;28;45595;-59
2022/05/28 15:44:32;;;;;;;1.10;0.90;;;25.00;39.10;;;;;;4898895;28;45565;-60
2022/05/28 15:46:58;;;;;;;1.45;0.90;;;25.00;39.00;;;;;;4918020;28;45941;-58
2022/05/28 15:49:24;;;;;;;1.15;1.00;;;25.00;39.00;;;;;;4901333;28;44931;-59
2022/05/28 15:51:50;;;;;;;1.67;1.10;;;24.90;38.90;;;;;;4918557;28;45126;-61
2022/05/28 15:54:16;;;;;;;1.48;1.10;;;25.00;38.90;;;;;;4917877;28;45261;-60
2022/05/28 15:56:42;;;;;;;1.27;1.05;;;25.00;38.90;;;;;;4910284;28;45038;-57
2022/05/28 15:59:08;;;;;;;2.17;1.13;;;25.00;38.90;;;;;;4917728;28;45103;-60
2022/05/28 16:01:35;;;;;;;1.40;1.13;;;25.00;38.90;;;;;;4882137;28;45612;-58
2022/05/28 16:04:01;;;;;;;0.95;0.80;;;25.00;38.90;;;;;;4915636;28;45224;-59
2022/05/28 16:06:28;;;;;;;1.42;0.98;;;25.00;38.90;;;;;;4917658;28;46385;-60
2022/05/28 16:08:53;;;;;;;1.77;1.45;;;24.90;38.90;;;;;;4911720;28;45540;-60
2022/05/28 16:11:24;;;;;;;1.35;0.98;;;24.90;38.90;;;;;;4917217;28;45483;-59
2022/05/28 16:13:50;;;;;;;1.90;1.10;;;24.90;38.90;;;;;;4916611;28;44676;-61
2022/05/28 16:16:16;;;;;;;1.50;1.17;;;24.90;38.90;;;;;;4917110;28;45565;-59
2022/05/28 16:18:42;;;;;;;2.22;1.25;;;24.90;39.00;;;;;;4881396;28;45387;-57